Time;durP1;ratioP1;P1;durP2;ratioP2;P2;SDS_P1;SDS_P2;PMS_P1;PMS_P2;Temp;Humidity;BMP_temperature;BMP_pressure;BME280_temperature;BME280_humidity;BME280_pressure;Samples;Min_cycle;Max_cycle;Signal;HPM_P1;HPM_P2
2021/12/12 00:02:09;;;;;;;51.88;17.70;;;8.10;99.90;;;;;;5064812;28;20880;-72
2021/12/12 00:04:37;;;;;;;54.42;17.98;;;8.10;99.90;;;;;;5050436;28;20422;-69
2021/12/12 00:07:10;;;;;;;51.40;17.60;;;8.10;99.90;;;;;;5079952;28;20902;-69
2021/12/12 00:09:41;;;;;;;48.45;17.77;;;8.10;99.90;;;;;;5045201;28;20915;-69
2021/12/12 00:12:16;;;;;;;44.75;17.67;;;8.10;99.90;;;;;;5065979;28;20464;-67
2021/12/12 00:14:43;;;;;;;42.22;16.58;;;8.00;99.90;;;;;;5062946;28;21344;-69
2021/12/12 00:17:10;;;;;;;46.30;17.58;;;8.10;99.90;;;;;;5071594;28;20764;-68
2021/12/12 00:19:37;;;;;;;45.40;17.58;;;8.00;99.90;;;;;;5067645;28;20907;-70
2021/12/12 00:22:12;;;;;;;48.25;17.48;;;8.00;99.90;;;;;;5068137;28;20783;-68
2021/12/12 00:24:39;;;;;;;46.22;16.83;;;8.00;99.90;;;;;;5067744;28;20427;-67
2021/12/12 00:27:05;;;;;;;49.50;17.02;;;8.00;99.90;;;;;;5050609;28;20490;-70
2021/12/12 00:29:31;;;;;;;51.63;17.00;;;8.10;99.90;;;;;;5068202;28;20451;-71
2021/12/12 00:32:02;;;;;;;43.78;16.70;;;8.00;99.90;;;;;;5068438;28;21224;-70
2021/12/12 00:34:30;;;;;;;48.33;16.30;;;8.10;99.90;;;;;;5072792;28;20409;-68
2021/12/12 00:36:57;;;;;;;43.47;17.42;;;8.00;99.90;;;;;;5068115;28;20900;-69
2021/12/12 00:39:28;;;;;;;49.35;16.73;;;8.10;99.90;;;;;;5051116;28;20407;-70
2021/12/12 00:42:06;;;;;;;43.03;16.98;;;8.10;99.90;;;;;;5049594;28;20435;-72
2021/12/12 00:44:31;;;;;;;45.10;17.02;;;8.00;99.90;;;;;;5046094;28;20424;-69
2021/12/12 00:47:00;;;;;;;45.20;16.77;;;8.10;99.90;;;;;;5068239;28;20408;-72
2021/12/12 00:49:28;;;;;;;44.78;17.13;;;8.10;99.90;;;;;;5066557;28;20435;-71
2021/12/12 00:51:55;;;;;;;41.13;16.98;;;8.10;99.90;;;;;;5050151;28;20545;-70
2021/12/12 00:54:21;;;;;;;47.95;18.00;;;8.00;99.90;;;;;;5074476;28;20803;-71
2021/12/12 00:56:48;;;;;;;47.13;18.15;;;8.00;99.90;;;;;;5074602;28;20426;-68
2021/12/12 00:59:14;;;;;;;46.38;18.05;;;8.10;99.90;;;;;;5050724;28;20407;-68
2021/12/12 01:01:50;;;;;;;40.03;16.55;;;8.00;99.90;;;;;;5065920;28;20415;-72
2021/12/12 01:04:31;;;;;;;45.13;17.27;;;8.00;99.90;;;;;;5066210;28;20419;-71
2021/12/12 01:07:00;;;;;;;43.33;17.15;;;8.00;99.90;;;;;;5068236;28;20431;-69
2021/12/12 01:09:33;;;;;;;45.05;17.83;;;8.00;99.90;;;;;;5067760;28;20458;-71
2021/12/12 01:12:07;;;;;;;44.40;17.92;;;8.00;99.90;;;;;;5067500;28;20923;-71
2021/12/12 01:14:41;;;;;;;45.25;18.08;;;8.00;99.90;;;;;;5067520;28;20434;-71
2021/12/12 01:17:30;;;;;;;43.90;17.95;;;8.00;99.90;;;;;;5066526;28;21091;-71
2021/12/12 01:20:25;;;;;;;43.97;18.33;;;8.00;99.90;;;;;;5053947;28;20406;-70
2021/12/12 01:22:56;;;;;;;46.92;18.00;;;8.00;99.90;;;;;;5067505;28;20880;-69
2021/12/12 01:25:32;;;;;;;49.47;18.55;;;8.00;99.90;;;;;;5066845;28;20912;-69
2021/12/12 01:27:58;;;;;;;47.42;18.80;;;8.10;99.90;;;;;;5047300;28;20426;-68
2021/12/12 01:30:26;;;;;;;44.00;18.77;;;8.00;99.90;;;;;;5066026;28;20450;-70
2021/12/12 01:32:53;;;;;;;47.65;18.95;;;8.00;99.90;;;;;;5068367;28;20503;-71
2021/12/12 01:35:20;;;;;;;45.33;18.63;;;8.00;99.90;;;;;;5066651;28;20493;-70
2021/12/12 01:40:44;;;;;;;44.65;19.23;;;8.10;99.90;;;;;;5065453;28;20541;-70
2021/12/12 01:43:27;;;;;;;47.83;19.63;;;8.10;99.90;;;;;;5045734;28;20418;-68
2021/12/12 01:46:23;;;;;;;44.27;19.37;;;8.00;99.90;;;;;;5058158;28;20465;-69
2021/12/12 01:48:59;;;;;;;46.28;19.83;;;8.00;99.90;;;;;;5043556;28;20434;-70
2021/12/12 01:51:26;;;;;;;40.17;20.30;;;8.10;99.90;;;;;;5063347;28;21034;-68
2021/12/12 01:53:56;;;;;;;38.60;19.70;;;8.10;99.90;;;;;;5047368;28;20979;-67
2021/12/12 01:56:50;;;;;;;51.30;20.23;;;8.10;99.90;;;;;;5061406;28;20422;-69
2021/12/12 01:59:17;;;;;;;45.25;20.45;;;8.10;99.90;;;;;;5062339;28;20399;-68
2021/12/12 02:01:49;;;;;;;45.55;20.95;;;8.00;99.90;;;;;;5062664;28;20419;-67
2021/12/12 02:04:20;;;;;;;41.50;20.30;;;8.10;99.90;;;;;;5065215;28;20411;-70
2021/12/12 02:06:48;;;;;;;41.70;19.98;;;8.10;99.90;;;;;;5058504;28;20438;-67
2021/12/12 02:09:15;;;;;;;39.42;20.17;;;8.10;99.90;;;;;;5062568;28;20427;-70
2021/12/12 02:11:43;;;;;;;42.75;20.23;;;8.10;99.90;;;;;;5059790;28;20842;-69
2021/12/12 02:14:14;;;;;;;39.90;19.83;;;8.10;99.90;;;;;;5066350;28;20827;-68
2021/12/12 02:16:46;;;;;;;34.10;18.98;;;8.10;99.90;;;;;;5058336;28;20888;-68
2021/12/12 02:19:14;;;;;;;39.78;19.17;;;8.10;99.90;;;;;;5060202;28;20415;-70
2021/12/12 02:22:10;;;;;;;37.38;18.95;;;8.10;99.90;;;;;;5057701;28;20471;-71
2021/12/12 02:38:05;;;;;;;35.33;19.30;;;8.20;99.90;;;;;;5066482;28;20404;-70
2021/12/12 02:40:35;;;;;;;34.20;19.63;;;8.20;99.90;;;;;;5060404;28;20419;-69
2021/12/12 02:43:01;;;;;;;34.92;19.23;;;8.30;99.90;;;;;;5066463;28;20411;-70
2021/12/12 02:45:30;;;;;;;36.28;19.05;;;8.30;99.90;;;;;;5067306;28;20531;-70
2021/12/12 02:48:00;;;;;;;36.88;19.65;;;8.30;99.90;;;;;;5065671;28;20404;-70
2021/12/12 02:50:32;;;;;;;36.08;20.08;;;8.30;99.90;;;;;;5064814;28;20506;-70
2021/12/12 02:53:09;;;;;;;37.23;20.60;;;8.30;99.90;;;;;;5066974;28;20426;-67
2021/12/12 02:55:38;;;;;;;39.58;21.20;;;8.30;99.90;;;;;;5064575;28;20415;-69
2021/12/12 02:58:07;;;;;;;40.42;22.00;;;8.40;99.90;;;;;;5066708;28;20489;-70
2021/12/12 03:00:37;;;;;;;37.70;22.70;;;8.30;99.90;;;;;;5049299;28;20419;-70
2021/12/12 03:03:03;;;;;;;40.63;23.08;;;8.40;99.90;;;;;;5064123;28;20498;-68
2021/12/12 03:05:36;;;;;;;38.90;24.08;;;8.40;99.90;;;;;;5065404;28;20417;-71
2021/12/12 03:08:02;;;;;;;38.85;24.38;;;8.40;99.90;;;;;;5066543;28;20392;-69
2021/12/12 03:10:37;;;;;;;41.95;24.58;;;8.40;99.90;;;;;;5065172;28;20434;-70
2021/12/12 03:13:04;;;;;;;41.35;25.27;;;8.40;99.90;;;;;;5066455;28;20407;-70
2021/12/12 03:15:38;;;;;;;42.35;25.75;;;8.50;99.90;;;;;;5064148;28;20899;-69
2021/12/12 03:18:08;;;;;;;44.88;27.45;;;8.50;99.90;;;;;;5064044;28;20415;-69
2021/12/12 03:20:38;;;;;;;44.53;26.98;;;8.50;99.90;;;;;;5062855;28;20427;-70
2021/12/12 03:23:09;;;;;;;45.60;27.95;;;8.50;99.90;;;;;;5065348;28;20419;-71
2021/12/12 03:25:38;;;;;;;45.20;28.70;;;8.60;99.90;;;;;;5055663;28;20419;-70
2021/12/12 03:28:06;;;;;;;45.17;28.90;;;8.60;99.90;;;;;;5066036;28;20482;-69
2021/12/12 03:30:32;;;;;;;45.60;28.97;;;8.60;99.90;;;;;;5064267;28;21054;-69
2021/12/12 03:32:58;;;;;;;49.38;29.90;;;8.60;99.90;;;;;;5066844;28;20422;-69
2021/12/12 03:35:24;;;;;;;47.83;29.30;;;8.60;99.90;;;;;;5075991;28;20416;-70
2021/12/12 03:37:50;;;;;;;50.10;30.55;;;8.60;99.90;;;;;;5062732;28;20430;-71
2021/12/12 03:40:24;;;;;;;49.42;30.70;;;8.60;99.90;;;;;;5065039;28;20418;-71
2021/12/12 03:42:52;;;;;;;52.17;30.63;;;8.60;99.90;;;;;;5062671;28;20407;-70
2021/12/12 03:45:19;;;;;;;49.28;30.95;;;8.70;99.90;;;;;;5059044;28;20410;-70
2021/12/12 03:47:52;;;;;;;54.35;32.10;;;8.70;99.90;;;;;;5064581;28;20489;-69
2021/12/12 03:50:22;;;;;;;53.25;32.13;;;8.70;99.90;;;;;;5059894;28;20423;-69
2021/12/12 03:52:49;;;;;;;55.70;32.72;;;8.70;99.90;;;;;;5045803;28;20539;-70
2021/12/12 03:55:16;;;;;;;53.10;32.15;;;8.70;99.90;;;;;;5064985;28;20411;-69
2021/12/12 03:57:42;;;;;;;53.00;31.77;;;8.70;99.90;;;;;;5064014;28;20439;-69
2021/12/12 04:00:14;;;;;;;53.83;32.00;;;8.70;99.90;;;;;;5062091;28;20927;-70
2021/12/12 04:02:39;;;;;;;54.55;32.10;;;8.80;99.90;;;;;;5062729;28;20423;-70
2021/12/12 04:05:05;;;;;;;54.90;32.93;;;8.70;99.90;;;;;;5031580;28;20437;-68
2021/12/12 04:07:32;;;;;;;61.55;32.97;;;8.80;99.90;;;;;;5067734;28;20468;-67
2021/12/12 04:09:59;;;;;;;55.30;32.65;;;8.80;99.90;;;;;;5048222;28;20428;-70
2021/12/12 04:12:26;;;;;;;58.37;33.27;;;8.90;99.90;;;;;;5066815;28;20422;-69
2021/12/12 04:14:54;;;;;;;59.13;32.97;;;8.90;99.90;;;;;;5062084;28;20877;-71
2021/12/12 04:17:25;;;;;;;57.00;32.17;;;8.90;99.90;;;;;;5067595;28;20439;-69
2021/12/12 04:19:54;;;;;;;61.40;33.80;;;8.90;99.90;;;;;;5061889;28;20434;-69
2021/12/12 04:22:20;;;;;;;63.22;33.00;;;8.90;99.90;;;;;;5066059;28;20411;-67
2021/12/12 04:24:49;;;;;;;61.37;34.17;;;8.90;99.90;;;;;;5062502;28;22459;-69
2021/12/12 04:27:16;;;;;;;58.50;33.35;;;8.90;99.90;;;;;;5066696;28;20891;-70
2021/12/12 04:29:45;;;;;;;61.15;33.17;;;8.90;99.90;;;;;;5064946;28;20452;-69
2021/12/12 04:32:16;;;;;;;54.45;31.67;;;8.90;99.90;;;;;;5066706;28;20745;-70
2021/12/12 04:34:48;;;;;;;60.10;33.63;;;9.00;99.90;;;;;;5061247;28;20403;-69
2021/12/12 04:37:15;;;;;;;55.17;28.85;;;9.00;99.90;;;;;;5065690;28;20190;-67
2021/12/12 04:39:47;;;;;;;60.38;27.85;;;8.70;99.90;;;;;;5064669;28;20183;-69
2021/12/12 04:42:29;;;;;;;51.53;27.30;;;8.40;99.90;;;;;;5068581;28;20302;-68
2021/12/12 04:45:25;;;;;;;58.45;27.73;;;8.20;99.90;;;;;;5063978;28;20274;-69
2021/12/12 04:51:21;;;;;;;65.75;28.35;;;8.00;99.90;;;;;;5055496;28;20203;-70
2021/12/12 04:53:52;;;;;;;63.70;27.23;;;8.00;99.90;;;;;;5063423;28;20667;-68
2021/12/12 04:56:28;;;;;;;55.53;28.48;;;8.00;99.90;;;;;;5062545;28;20190;-69
2021/12/12 04:59:08;;;;;;;58.72;29.05;;;8.00;99.90;;;;;;5061812;28;20204;-70
2021/12/12 05:01:39;;;;;;;64.03;30.60;;;8.00;99.90;;;;;;5055888;28;20248;-71
2021/12/12 05:04:22;;;;;;;61.40;31.75;;;8.00;99.90;;;;;;5060840;28;20260;-70
2021/12/12 05:06:56;;;;;;;64.47;31.48;;;8.00;99.90;;;;;;5058700;28;20191;-68
2021/12/12 05:09:42;;;;;;;73.38;31.52;;;8.00;99.90;;;;;;5060317;28;20296;-69
2021/12/12 05:12:16;;;;;;;73.45;32.63;;;8.10;99.90;;;;;;5059319;28;20186;-72
2021/12/12 05:14:50;;;;;;;71.57;33.17;;;8.10;99.90;;;;;;5054714;28;20186;-72
2021/12/12 05:17:30;;;;;;;73.20;32.85;;;8.10;99.90;;;;;;5059341;28;20240;-70
2021/12/12 05:20:02;;;;;;;69.68;33.47;;;8.10;99.90;;;;;;5036492;28;20188;-70
2021/12/12 05:22:42;;;;;;;71.07;33.13;;;8.20;99.90;;;;;;5055191;28;20664;-69
2021/12/12 05:25:14;;;;;;;76.05;34.45;;;8.20;99.90;;;;;;5055845;28;20193;-71
2021/12/12 05:27:42;;;;;;;69.30;33.58;;;8.20;99.90;;;;;;5056321;28;20241;-70
2021/12/12 05:30:13;;;;;;;74.28;34.58;;;8.20;99.90;;;;;;5054283;28;20214;-71
2021/12/12 05:32:39;;;;;;;81.47;35.25;;;8.20;99.90;;;;;;5060939;28;20191;-70
2021/12/12 05:35:08;;;;;;;89.18;35.55;;;8.20;99.90;;;;;;5064027;28;20560;-69
2021/12/12 05:37:35;;;;;;;79.28;36.30;;;8.30;99.90;;;;;;5065938;28;20919;-70
2021/12/12 05:40:06;;;;;;;87.82;37.20;;;8.30;99.90;;;;;;5064876;28;20195;-70
2021/12/12 05:42:32;;;;;;;82.55;36.05;;;8.30;99.90;;;;;;5070566;28;20647;-69
2021/12/12 05:44:59;;;;;;;84.05;36.60;;;8.30;99.90;;;;;;5066764;28;20241;-68
2021/12/12 05:47:25;;;;;;;77.00;33.90;;;8.40;99.90;;;;;;5068256;28;20190;-69
2021/12/12 05:49:51;;;;;;;78.72;37.63;;;8.40;99.90;;;;;;5066802;28;20273;-70
2021/12/12 05:52:19;;;;;;;83.32;37.03;;;8.40;99.90;;;;;;5068461;28;20703;-69
2021/12/12 05:54:47;;;;;;;84.25;35.95;;;8.50;99.90;;;;;;5066940;28;20552;-69
2021/12/12 05:57:16;;;;;;;74.88;36.10;;;8.50;99.90;;;;;;5081286;28;20316;-72
2021/12/12 05:59:42;;;;;;;82.43;35.30;;;8.50;99.90;;;;;;5067022;28;20197;-69
2021/12/12 06:02:08;;;;;;;84.28;38.63;;;8.50;99.90;;;;;;5050773;28;20187;-69
2021/12/12 06:04:35;;;;;;;78.28;37.45;;;8.60;99.90;;;;;;5049369;28;20189;-68
2021/12/12 06:07:04;;;;;;;83.13;36.42;;;8.60;99.90;;;;;;5067395;28;20662;-68
2021/12/12 06:09:32;;;;;;;80.75;36.42;;;8.60;99.90;;;;;;5066690;28;20352;-69
2021/12/12 06:11:59;;;;;;;97.85;37.33;;;8.60;99.90;;;;;;5066883;28;20261;-67
2021/12/12 06:14:26;;;;;;;84.50;37.25;;;8.70;99.90;;;;;;5047612;28;20198;-67
2021/12/12 06:16:52;;;;;;;91.75;37.38;;;8.70;99.90;;;;;;5066733;28;20186;-70
2021/12/12 06:19:22;;;;;;;82.38;36.45;;;8.80;99.90;;;;;;5081619;28;20191;-71
2021/12/12 06:21:53;;;;;;;88.50;34.20;;;8.80;99.90;;;;;;5065228;28;20231;-68
2021/12/12 06:24:21;;;;;;;88.72;36.05;;;8.80;99.90;;;;;;5067345;28;20663;-69
2021/12/12 06:26:46;;;;;;;85.95;35.70;;;8.90;99.90;;;;;;5050355;28;20649;-71
2021/12/12 06:29:13;;;;;;;87.15;36.85;;;8.90;99.90;;;;;;5083703;28;20213;-68
2021/12/12 06:31:41;;;;;;;90.35;37.63;;;8.90;99.90;;;;;;5068129;28;20178;-70
2021/12/12 06:34:08;;;;;;;86.40;37.55;;;9.00;99.90;;;;;;5068642;28;20186;-70
2021/12/12 06:36:35;;;;;;;95.07;43.47;;;9.00;99.90;;;;;;5072921;28;20442;-68
2021/12/12 06:39:04;;;;;;;90.50;42.63;;;9.40;99.90;;;;;;5066621;28;20426;-69
2021/12/12 06:41:29;;;;;;;83.75;40.53;;;9.70;99.90;;;;;;5063080;28;20426;-68
2021/12/12 06:43:56;;;;;;;82.20;38.90;;;9.90;99.90;;;;;;5066232;28;20879;-67
2021/12/12 06:46:23;;;;;;;80.72;36.58;;;10.10;99.90;;;;;;5064521;28;20433;-69
2021/12/12 06:48:50;;;;;;;77.78;36.53;;;10.20;99.90;;;;;;5065132;28;20502;-70
2021/12/12 06:51:16;;;;;;;74.85;35.22;;;10.30;99.90;;;;;;5058654;28;20414;-70
2021/12/12 06:53:44;;;;;;;86.33;36.97;;;10.40;99.90;;;;;;5062985;28;20411;-67
2021/12/12 06:56:13;;;;;;;83.82;36.47;;;10.40;99.90;;;;;;5063914;28;20407;-68
2021/12/12 06:58:39;;;;;;;84.40;35.53;;;10.50;99.90;;;;;;5064735;28;20756;-68
2021/12/12 07:01:12;;;;;;;79.13;34.67;;;10.50;99.90;;;;;;5059798;28;20419;-68
2021/12/12 07:03:39;;;;;;;75.75;33.22;;;10.50;99.90;;;;;;5063172;28;20410;-68
2021/12/12 07:06:06;;;;;;;73.72;31.38;;;10.60;99.90;;;;;;5063678;28;20410;-69
2021/12/12 07:08:33;;;;;;;81.10;32.10;;;10.60;99.90;;;;;;5064242;28;21096;-70
2021/12/12 07:10:58;;;;;;;77.53;30.17;;;10.60;99.90;;;;;;5061960;28;20420;-69
2021/12/12 07:13:24;;;;;;;74.13;29.52;;;10.70;99.90;;;;;;5058271;28;20481;-69
2021/12/12 07:15:53;;;;;;;79.75;30.38;;;10.70;99.90;;;;;;5063351;28;20418;-69
2021/12/12 07:18:22;;;;;;;67.27;25.93;;;10.80;99.90;;;;;;5064005;28;20435;-68
2021/12/12 07:20:51;;;;;;;63.85;25.67;;;10.80;99.90;;;;;;5059216;28;20904;-70
2021/12/12 07:23:17;;;;;;;72.60;26.70;;;10.80;99.90;;;;;;5056368;28;20456;-68
2021/12/12 07:25:43;;;;;;;68.70;26.42;;;10.90;99.90;;;;;;5063242;28;20499;-71
2021/12/12 07:28:10;;;;;;;69.57;24.57;;;10.90;99.90;;;;;;5060226;28;20404;-70
2021/12/12 07:30:37;;;;;;;73.80;25.08;;;11.00;99.90;;;;;;5063660;28;21280;-69
2021/12/12 07:33:04;;;;;;;77.70;24.05;;;11.00;99.90;;;;;;5060428;28;20518;-69
2021/12/12 07:35:33;;;;;;;78.63;23.92;;;11.00;99.90;;;;;;5063936;28;20404;-70
2021/12/12 07:37:59;;;;;;;71.22;22.45;;;11.10;99.90;;;;;;5061166;28;20414;-68
2021/12/12 07:40:25;;;;;;;78.80;21.33;;;11.10;99.90;;;;;;5065008;28;20764;-70
2021/12/12 07:42:52;;;;;;;87.77;21.93;;;11.10;99.90;;;;;;5057582;28;20401;-67
2021/12/12 07:45:20;;;;;;;72.18;21.77;;;11.20;99.90;;;;;;5061802;28;20760;-71
2021/12/12 07:47:47;;;;;;;67.88;19.95;;;11.20;99.90;;;;;;5053952;28;20559;-68
2021/12/12 07:50:16;;;;;;;69.00;20.27;;;11.20;99.90;;;;;;5044640;28;20421;-69
2021/12/12 07:52:44;;;;;;;69.32;18.00;;;11.30;99.90;;;;;;5055592;28;20419;-68
2021/12/12 07:55:09;;;;;;;66.63;18.30;;;11.30;99.90;;;;;;5040223;28;20407;-69
2021/12/12 07:57:35;;;;;;;58.95;15.25;;;11.30;99.90;;;;;;5058759;28;20191;-67
2021/12/12 08:00:08;;;;;;;51.55;13.65;;;10.90;99.90;;;;;;5060298;28;20193;-70
2021/12/12 08:02:39;;;;;;;65.97;13.32;;;10.70;99.90;;;;;;5063670;28;20328;-69
2021/12/12 08:05:05;;;;;;;54.53;11.93;;;10.50;99.90;;;;;;5065076;28;20194;-70
2021/12/12 08:07:33;;;;;;;45.17;12.18;;;10.40;99.90;;;;;;5064519;28;20273;-68
2021/12/12 08:10:00;;;;;;;43.88;12.02;;;10.40;99.90;;;;;;5062220;28;20213;-70
2021/12/12 08:12:28;;;;;;;53.35;12.75;;;10.30;99.90;;;;;;5058865;28;20193;-70
2021/12/12 08:14:55;;;;;;;49.97;11.57;;;10.30;99.90;;;;;;5064864;28;20194;-70
2021/12/12 08:17:21;;;;;;;47.38;11.05;;;10.30;99.90;;;;;;5064415;28;20187;-69
2021/12/12 08:19:51;;;;;;;54.17;10.57;;;10.30;99.90;;;;;;5058798;28;21031;-69
2021/12/12 08:22:17;;;;;;;34.67;9.57;;;10.30;99.90;;;;;;5059271;28;20191;-70
2021/12/12 08:24:43;;;;;;;43.72;10.80;;;10.30;99.90;;;;;;5064944;28;20195;-68
2021/12/12 08:27:11;;;;;;;49.72;11.18;;;10.30;99.90;;;;;;5061842;28;20206;-70
2021/12/12 08:29:37;;;;;;;40.20;11.75;;;10.30;99.90;;;;;;5063182;28;20693;-71
2021/12/12 08:32:06;;;;;;;43.65;10.68;;;10.30;99.90;;;;;;5063831;28;20205;-69
2021/12/12 08:34:32;;;;;;;39.40;10.85;;;10.30;99.90;;;;;;5062524;28;20255;-70
2021/12/12 08:36:58;;;;;;;38.53;9.82;;;10.30;99.90;;;;;;5066395;28;20269;-74
2021/12/12 08:39:27;;;;;;;34.97;10.68;;;10.30;99.90;;;;;;5050243;28;20269;-70
2021/12/12 08:41:54;;;;;;;40.28;11.13;;;10.30;99.90;;;;;;5076106;28;20777;-72
2021/12/12 08:44:20;;;;;;;36.22;10.48;;;10.30;99.90;;;;;;5082118;28;20182;-71
2021/12/12 08:46:51;;;;;;;29.77;10.25;;;10.30;99.90;;;;;;5071841;28;20240;-72
2021/12/12 08:49:19;;;;;;;29.67;8.57;;;10.30;99.90;;;;;;5067965;28;20206;-70
2021/12/12 08:51:58;;;;;;;33.70;9.30;;;10.30;99.90;;;;;;5069839;28;20517;-70
2021/12/12 08:54:29;;;;;;;28.00;9.73;;;10.30;99.90;;;;;;5068189;28;20519;-70
2021/12/12 08:57:09;;;;;;;26.58;9.20;;;10.30;99.90;;;;;;5076081;28;20646;-69
2021/12/12 08:59:39;;;;;;;23.23;8.90;;;10.40;99.90;;;;;;5067841;28;21004;-70
2021/12/12 09:02:12;;;;;;;26.67;9.68;;;10.40;99.90;;;;;;5068725;28;20241;-69
2021/12/12 09:04:47;;;;;;;24.33;10.05;;;10.40;99.90;;;;;;5072094;28;20610;-70
2021/12/12 09:07:19;;;;;;;23.90;8.52;;;10.40;99.90;;;;;;5069282;28;20239;-70
2021/12/12 09:09:51;;;;;;;26.08;8.63;;;10.40;99.90;;;;;;5067863;28;20272;-69
2021/12/12 09:12:24;;;;;;;20.17;7.22;;;10.40;99.90;;;;;;5051009;28;20190;-71
2021/12/12 09:15:09;;;;;;;19.33;8.32;;;10.40;99.90;;;;;;5067298;28;20195;-74
2021/12/12 09:17:48;;;;;;;19.98;7.57;;;10.40;99.90;;;;;;5068440;28;20236;-73
2021/12/12 09:20:32;;;;;;;13.75;6.47;;;10.40;99.90;;;;;;5068496;28;20244;-71
2021/12/12 09:23:16;;;;;;;13.90;6.13;;;10.40;99.90;;;;;;5067618;28;20198;-70
2021/12/12 09:25:51;;;;;;;13.15;6.10;;;10.40;99.90;;;;;;5068469;28;20221;-70
2021/12/12 09:28:39;;;;;;;16.08;5.65;;;10.50;99.90;;;;;;5050202;28;20209;-71
2021/12/12 09:31:13;;;;;;;10.43;5.07;;;10.50;99.90;;;;;;5067877;28;20638;-70
2021/12/12 09:33:47;;;;;;;10.23;5.60;;;10.50;99.90;;;;;;5067317;28;20660;-70
2021/12/12 09:36:18;;;;;;;10.27;5.45;;;10.50;99.90;;;;;;5066909;28;20206;-71
2021/12/12 09:39:08;;;;;;;9.75;5.60;;;10.50;99.90;;;;;;5069048;28;20592;-70
2021/12/12 09:41:59;;;;;;;15.18;5.63;;;10.50;99.90;;;;;;5047479;28;20759;-69
2021/12/12 09:44:57;;;;;;;18.42;5.72;;;10.50;99.90;;;;;;5066395;28;20182;-71
2021/12/12 09:47:57;;;;;;;13.13;4.65;;;10.50;99.90;;;;;;5066988;28;20190;-69
2021/12/12 09:53:51;;;;;;;9.18;4.45;;;10.50;99.90;;;;;;5066805;28;20186;-70
2021/12/12 09:56:41;;;;;;;8.98;4.75;;;10.50;99.90;;;;;;5055283;28;20207;-69
2021/12/12 09:59:39;;;;;;;8.15;5.38;;;10.50;99.90;;;;;;5067520;28;20198;-70
2021/12/12 10:02:45;;;;;;;7.97;5.22;;;10.50;99.90;;;;;;5066742;28;20187;-69
2021/12/12 10:06:09;;;;;;;12.82;5.03;;;10.50;99.90;;;;;;5065597;28;20278;-70
2021/12/12 10:09:01;;;;;;;10.68;5.25;;;10.50;99.90;;;;;;4966371;28;20590;-70
2021/12/12 10:12:00;;;;;;;18.83;5.82;;;10.60;99.90;;;;;;5072965;28;20189;-71
2021/12/12 10:14:43;;;;;;;14.10;5.55;;;10.60;99.90;;;;;;5071180;28;20182;-70
2021/12/12 10:17:28;;;;;;;11.73;6.53;;;10.60;99.90;;;;;;5066299;28;20201;-71
2021/12/12 10:20:00;;;;;;;11.15;6.13;;;10.60;99.90;;;;;;5066789;28;20252;-71
2021/12/12 10:22:49;;;;;;;11.95;6.65;;;10.60;99.90;;;;;;5066991;28;20270;-71
2021/12/12 10:25:18;;;;;;;20.23;8.32;;;10.60;99.90;;;;;;5066828;28;20340;-70
2021/12/12 10:28:09;;;;;;;19.63;8.93;;;10.60;99.90;;;;;;5048721;28;20189;-74
2021/12/12 10:30:40;;;;;;;21.00;9.43;;;10.60;99.90;;;;;;5066791;28;20686;-73
2021/12/12 10:33:20;;;;;;;27.60;12.60;;;10.60;99.90;;;;;;5065523;28;20502;-70
2021/12/12 10:36:29;;;;;;;29.02;12.57;;;11.10;99.90;;;;;;5066064;28;20416;-71
2021/12/12 10:39:36;;;;;;;22.30;11.07;;;11.40;99.90;;;;;;5002847;28;20423;-74
2021/12/12 10:42:15;;;;;;;22.98;11.27;;;11.60;99.90;;;;;;5046430;28;20559;-70
2021/12/12 10:44:54;;;;;;;25.73;11.60;;;11.70;99.90;;;;;;5047912;28;20445;-70
2021/12/12 10:47:33;;;;;;;26.60;12.10;;;11.70;99.90;;;;;;5061546;28;20403;-70
2021/12/12 10:50:18;;;;;;;29.10;11.53;;;11.80;99.90;;;;;;5063359;28;20427;-71
2021/12/12 10:52:53;;;;;;;25.33;11.15;;;11.90;99.90;;;;;;5072104;28;20402;-71
2021/12/12 10:55:31;;;;;;;25.35;11.38;;;11.90;99.90;;;;;;5064103;28;20426;-72
2021/12/12 10:58:03;;;;;;;27.55;11.05;;;11.90;99.90;;;;;;5067879;28;20404;-70
2021/12/12 11:00:37;;;;;;;25.80;11.03;;;12.00;99.90;;;;;;5068811;28;20419;-70
2021/12/12 11:03:07;;;;;;;23.30;10.30;;;12.00;99.90;;;;;;5068549;28;20422;-71
2021/12/12 11:05:33;;;;;;;30.92;11.43;;;12.00;99.90;;;;;;5069172;28;20519;-70
2021/12/12 11:08:10;;;;;;;28.95;12.13;;;12.00;99.90;;;;;;5067219;28;20506;-70
2021/12/12 11:10:39;;;;;;;34.60;12.45;;;12.00;99.90;;;;;;5071101;28;20973;-70
2021/12/12 11:13:10;;;;;;;33.13;12.57;;;12.00;99.90;;;;;;5067753;28;20777;-71
2021/12/12 11:15:42;;;;;;;36.50;12.80;;;12.00;99.90;;;;;;5065804;28;20929;-69
2021/12/12 11:18:14;;;;;;;31.92;12.38;;;12.00;99.90;;;;;;5047262;28;20993;-71
2021/12/12 11:20:50;;;;;;;30.07;12.50;;;12.10;99.90;;;;;;5064116;28;20469;-70
2021/12/12 11:23:28;;;;;;;30.70;11.80;;;12.10;99.90;;;;;;5072621;28;20418;-71
2021/12/12 11:26:04;;;;;;;31.77;12.13;;;12.10;99.90;;;;;;5067421;28;20441;-71
2021/12/12 11:28:38;;;;;;;36.33;12.18;;;12.10;99.90;;;;;;5048075;28;20442;-70
2021/12/12 11:31:15;;;;;;;27.45;11.13;;;12.10;99.90;;;;;;5045051;28;20426;-69
2021/12/12 11:33:45;;;;;;;30.07;11.67;;;12.20;99.90;;;;;;5066082;28;20395;-69
2021/12/12 11:36:13;;;;;;;36.97;15.60;;;12.20;99.90;;;;;;5066016;28;20927;-70
2021/12/12 11:38:52;;;;;;;25.40;10.50;;;12.20;99.90;;;;;;5080657;28;20433;-70
2021/12/12 11:41:33;;;;;;;26.67;10.13;;;12.20;99.90;;;;;;5067055;28;20416;-70
2021/12/12 11:44:22;;;;;;;29.10;11.18;;;12.20;99.90;;;;;;5063852;28;20433;-70
2021/12/12 11:47:24;;;;;;;28.85;9.73;;;12.30;99.90;;;;;;5039502;28;20450;-70
2021/12/12 11:49:51;;;;;;;30.43;9.90;;;12.30;99.90;;;;;;5059626;28;20518;-71
2021/12/12 11:52:34;;;;;;;30.60;9.70;;;12.30;99.90;;;;;;5064270;28;20403;-70
2021/12/12 11:55:12;;;;;;;37.10;10.35;;;12.30;99.90;;;;;;5062243;28;20520;-69
2021/12/12 11:58:05;;;;;;;41.17;9.95;;;12.30;99.90;;;;;;5045172;28;20486;-70
2021/12/12 12:00:38;;;;;;;44.83;10.15;;;12.30;99.90;;;;;;5060893;28;20780;-71
2021/12/12 12:03:13;;;;;;;39.17;10.77;;;12.30;99.90;;;;;;5061788;28;20530;-70
2021/12/12 12:06:06;;;;;;;45.83;10.85;;;12.30;99.90;;;;;;5060182;28;20427;-69
2021/12/12 12:08:51;;;;;;;50.63;11.00;;;12.30;99.90;;;;;;5061024;28;21258;-70
2021/12/12 12:12:01;;;;;;;46.75;11.48;;;12.30;99.90;;;;;;5060305;28;20430;-71
2021/12/12 12:14:41;;;;;;;50.55;10.85;;;12.30;99.90;;;;;;5058550;28;20820;-70
2021/12/12 12:17:55;;;;;;;53.13;11.30;;;12.40;99.90;;;;;;5064810;28;20482;-71
2021/12/12 12:20:42;;;;;;;49.65;10.65;;;12.40;99.90;;;;;;5059449;28;20506;-70
2021/12/12 12:23:42;;;;;;;48.70;11.10;;;12.40;99.90;;;;;;5059548;28;20415;-71
2021/12/12 12:29:31;;;;;;;52.75;11.55;;;12.50;99.90;;;;;;5058866;28;20482;-71
2021/12/12 12:32:34;;;;;;;64.63;12.43;;;12.50;99.90;;;;;;5057762;28;20818;-70
2021/12/12 12:35:31;;;;;;;59.28;12.25;;;12.50;99.90;;;;;;5051579;28;20412;-70
2021/12/12 12:38:27;;;;;;;70.83;12.67;;;12.50;99.90;;;;;;5056341;28;20882;-70
2021/12/12 12:41:23;;;;;;;52.90;12.68;;;12.50;99.90;;;;;;5058122;28;20454;-68
2021/12/12 12:44:26;;;;;;;58.80;13.05;;;12.50;99.90;;;;;;5068431;28;20498;-71
2021/12/12 12:47:36;;;;;;;58.90;13.05;;;12.50;99.90;;;;;;5062448;28;20411;-69
2021/12/12 12:50:14;;;;;;;65.43;12.10;;;12.50;99.90;;;;;;5046659;28;20428;-69
2021/12/12 12:53:16;;;;;;;48.60;11.20;;;12.50;99.90;;;;;;5068401;28;21214;-71
2021/12/12 12:56:18;;;;;;;58.60;11.48;;;12.50;99.90;;;;;;5065856;28;20416;-71
2021/12/12 12:59:16;;;;;;;63.38;12.35;;;12.50;99.90;;;;;;5067152;28;20416;-70
2021/12/12 13:02:05;;;;;;;49.57;10.80;;;12.50;99.90;;;;;;5037695;28;21204;-71
2021/12/12 13:04:56;;;;;;;43.90;9.80;;;12.50;99.90;;;;;;5067901;28;20391;-71
2021/12/12 13:07:48;;;;;;;44.72;9.02;;;12.50;99.90;;;;;;5015868;28;20403;-71
2021/12/12 13:10:19;;;;;;;42.60;9.52;;;12.50;99.90;;;;;;5069725;28;20438;-69
2021/12/12 13:13:17;;;;;;;47.70;10.05;;;12.60;99.90;;;;;;5068005;28;20494;-71
2021/12/12 13:15:51;;;;;;;40.50;9.20;;;12.60;99.90;;;;;;5056279;28;20450;-71
2021/12/12 13:18:47;;;;;;;42.83;9.73;;;12.60;99.90;;;;;;5074305;28;20410;-73
2021/12/12 13:21:37;;;;;;;40.13;8.75;;;12.60;99.90;;;;;;5045984;28;20451;-70
2021/12/12 13:24:27;;;;;;;33.50;8.30;;;12.60;99.90;;;;;;5049106;28;20412;-71
2021/12/12 13:27:08;;;;;;;28.35;7.30;;;12.60;99.90;;;;;;5066342;28;20489;-70
2021/12/12 13:29:44;;;;;;;30.30;7.80;;;12.60;99.90;;;;;;5048494;28;20427;-69
2021/12/12 13:32:19;;;;;;;29.67;6.75;;;12.70;99.90;;;;;;5067628;28;20494;-71
2021/12/12 13:34:56;;;;;;;21.23;5.73;;;12.70;99.90;;;;;;5065986;28;20443;-71
2021/12/12 13:37:51;;;;;;;21.45;5.60;;;12.70;99.90;;;;;;5066156;28;20507;-70